메인 페이지
METAR-TAF:

METAR-TAF

공항 :

미니애폴리스 세인트폴 국제공항

미니애폴리스, 미네소타, 미국

위도: 44-52-59N, 경도: 093-13-44W, 고도: 256m

현재 날씨관측

예보는 6분 전, 17:50시(UTC)에 발표되었습니다.
북북서8kt
온도 11°C
습도 94%
기압 1014 hPa
시정: 16.1km
고도 1000ft 상공 구름 조금
고도 1600ft 상공 구름 많음
고도 2100ft 상공 흐림

METAR: KMSP 251750Z 34008KT 10SM FEW010 BKN016 OVC021 11/10 A2993 RMK AO2 RAE27 P0005

시각: 12:56 (17:56 UTC)

예보

예보는 21분 전, 17:35시(UTC)에 발표되었습니다.
예보 대상 시간: 25일 18시부터 26일 24시까지 (UTC)
북서11kt
시정: 10km
고도 1500ft 상공 흐림
시계 내 소나기
25일 1930시부터 (UTC)
북서11kt
시정: 10km
고도 2000ft 상공 흐림
25일 2100시부터 (UTC)
북서10kt
시정: 10km
고도 3500ft 상공 흐림
시계 내 소나기
26일 0100시부터 (UTC)
서북서7kt
시정: 10km
고도 5000ft 상공 구름 보통
26일 1000시부터 (UTC)
7kt
시정: 10km
고도 3000ft 상공 흐림
26일 1500시부터 (UTC)
서북서11kt, 순간 최대 풍속 18kt
시정: 10km
고도 5000ft 상공 구름 보통
26일 1800시부터 (UTC)
서북서14kt, 순간 최대 풍속 20kt
시정: 10km
고도 25000ft 상공 구름 보통

TAF: KMSP 251735Z 2518/2624 31011KT P6SM VCSH OVC015 FM251930 31011KT P6SM OVC020 FM252100 31010KT P6SM VCSH OVC035 FM260100 29007KT P6SM SCT050 FM261000 28007KT P6SM OVC030 FM261500 29011G18KT P6SM SCT050 FM261800 29014G20KT P6SM SCT250

4,000개 이상의 공항 관측 자료 및 예보 (METAR 및 TAF 보고).

지도상에서 검색 가능한 기상관측소가 노란 점과 빨간 점으로 표시되어 있습니다.

기상관측소 명을 보려면 표시 위로 마우스를 이동하세요.

날씨 관측과 예보를 보려면 클릭하세요.

지도 변경 : 확대하려면 엑스 표시가 있는 녹색 버튼, 축소하려면 빼기 표시가 있는 녹색 버튼, 다음 페이지의 지도를 보려면 녹색 화살표를 클릭하세요.


METAR-TAF: